Terminal Aerodrome Forecast
Issued by NWS

Home | Current Version | Previous Version | Text Only | Print | Product List | Glossary On
Versions: 1 2 3 4 5 6 7 8 9 10 11 12 13 14 15 16 17 18 19 20 21 22 23 24 25 26 27 28 29 30 31 32 33 34 35 36 37 38 39 40 41 42
345
FTUS45 KMSO 161731
TAFSMN
TAF
KSMN 161731Z 1618/1718 VRB03KT P6SM VCSH SCT020 OVC040
     FM162100 VRB03KT P6SM BKN060
     FM171400 25002KT 1 1/2SM -SN OVC015=

USA.gov is the U.S. government's official web portal to all federal, state and local government web resources and services.